sensor_id;sensor_type;location;lat;lon;timestamp;P1;durP1;ratioP1;P2;durP2;ratioP2
47113;SDS011;32867;51.556;6.832;2023-06-10T00:00:30;7.40;;;4.28;;
47113;SDS011;32867;51.556;6.832;2023-06-10T00:05:31;6.28;;;4.97;;
47113;SDS011;32867;51.556;6.832;2023-06-10T00:10:35;5.97;;;4.80;;
47113;SDS011;32867;51.556;6.832;2023-06-10T00:15:38;6.38;;;4.28;;
47113;SDS011;32867;51.556;6.832;2023-06-10T00:20:39;6.88;;;5.20;;
47113;SDS011;32867;51.556;6.832;2023-06-10T00:25:39;6.43;;;4.50;;
47113;SDS011;32867;51.556;6.832;2023-06-10T00:30:40;6.63;;;5.30;;
47113;SDS011;32867;51.556;6.832;2023-06-10T00:35:44;7.57;;;5.40;;
47113;SDS011;32867;51.556;6.832;2023-06-10T00:40:46;6.72;;;5.00;;
47113;SDS011;32867;51.556;6.832;2023-06-10T00:45:47;8.18;;;5.35;;
47113;SDS011;32867;51.556;6.832;2023-06-10T00:50:49;5.93;;;4.95;;
47113;SDS011;32867;51.556;6.832;2023-06-10T00:55:49;7.22;;;5.05;;
47113;SDS011;32867;51.556;6.832;2023-06-10T01:00:50;6.70;;;5.28;;
47113;SDS011;32867;51.556;6.832;2023-06-10T01:05:53;6.53;;;4.80;;
47113;SDS011;32867;51.556;6.832;2023-06-10T01:11:05;6.72;;;4.70;;
47113;SDS011;32867;51.556;6.832;2023-06-10T01:16:13;7.88;;;5.18;;
47113;SDS011;32867;51.556;6.832;2023-06-10T01:21:19;6.60;;;5.32;;
47113;SDS011;32867;51.556;6.832;2023-06-10T01:26:22;7.47;;;5.53;;
47113;SDS011;32867;51.556;6.832;2023-06-10T01:36:38;7.97;;;5.80;;
47113;SDS011;32867;51.556;6.832;2023-06-10T01:41:42;8.32;;;6.13;;
47113;SDS011;32867;51.556;6.832;2023-06-10T01:46:44;7.10;;;6.38;;
47113;SDS011;32867;51.556;6.832;2023-06-10T01:51:48;8.27;;;7.05;;
47113;SDS011;32867;51.556;6.832;2023-06-10T01:56:49;7.88;;;6.43;;
47113;SDS011;32867;51.556;6.832;2023-06-10T02:01:51;7.10;;;5.70;;
47113;SDS011;32867;51.556;6.832;2023-06-10T02:06:52;8.38;;;6.10;;
47113;SDS011;32867;51.556;6.832;2023-06-10T02:11:53;7.85;;;6.18;;
47113;SDS011;32867;51.556;6.832;2023-06-10T02:16:54;9.20;;;6.82;;
47113;SDS011;32867;51.556;6.832;2023-06-10T02:21:57;8.38;;;6.80;;
47113;SDS011;32867;51.556;6.832;2023-06-10T02:26:58;7.78;;;6.28;;
47113;SDS011;32867;51.556;6.832;2023-06-10T02:32:01;8.10;;;6.18;;
47113;SDS011;32867;51.556;6.832;2023-06-10T02:37:02;9.38;;;6.65;;
47113;SDS011;32867;51.556;6.832;2023-06-10T02:42:05;9.32;;;7.18;;
47113;SDS011;32867;51.556;6.832;2023-06-10T02:47:07;8.70;;;6.72;;
47113;SDS011;32867;51.556;6.832;2023-06-10T02:52:10;8.52;;;6.93;;
47113;SDS011;32867;51.556;6.832;2023-06-10T02:57:12;9.13;;;7.47;;
47113;SDS011;32867;51.556;6.832;2023-06-10T03:02:14;8.25;;;7.15;;
47113;SDS011;32867;51.556;6.832;2023-06-10T03:07:22;9.35;;;7.60;;
47113;SDS011;32867;51.556;6.832;2023-06-10T03:12:25;11.02;;;6.97;;
47113;SDS011;32867;51.556;6.832;2023-06-10T03:17:26;10.73;;;7.63;;
47113;SDS011;32867;51.556;6.832;2023-06-10T03:22:28;9.23;;;7.40;;
47113;SDS011;32867;51.556;6.832;2023-06-10T03:27:35;9.45;;;8.48;;
47113;SDS011;32867;51.556;6.832;2023-06-10T03:32:39;10.57;;;7.45;;
47113;SDS011;32867;51.556;6.832;2023-06-10T03:37:42;9.45;;;7.22;;
47113;SDS011;32867;51.556;6.832;2023-06-10T03:42:43;9.68;;;7.80;;
47113;SDS011;32867;51.556;6.832;2023-06-10T03:47:46;7.82;;;6.65;;
47113;SDS011;32867;51.556;6.832;2023-06-10T03:52:50;10.40;;;8.20;;
47113;SDS011;32867;51.556;6.832;2023-06-10T03:57:55;9.20;;;6.78;;
47113;SDS011;32867;51.556;6.832;2023-06-10T04:02:56;9.07;;;6.95;;
47113;SDS011;32867;51.556;6.832;2023-06-10T04:08:10;9.52;;;6.63;;
47113;SDS011;32867;51.556;6.832;2023-06-10T04:13:11;11.57;;;7.43;;
47113;SDS011;32867;51.556;6.832;2023-06-10T04:18:20;10.38;;;6.43;;
47113;SDS011;32867;51.556;6.832;2023-06-10T04:23:22;8.38;;;6.55;;
47113;SDS011;32867;51.556;6.832;2023-06-10T04:28:22;7.53;;;6.20;;
47113;SDS011;32867;51.556;6.832;2023-06-10T04:33:24;9.98;;;6.32;;
47113;SDS011;32867;51.556;6.832;2023-06-10T04:38:25;9.13;;;5.88;;
47113;SDS011;32867;51.556;6.832;2023-06-10T04:43:28;10.30;;;6.32;;
47113;SDS011;32867;51.556;6.832;2023-06-10T04:48:33;7.65;;;5.95;;
47113;SDS011;32867;51.556;6.832;2023-06-10T04:53:35;8.40;;;5.90;;
47113;SDS011;32867;51.556;6.832;2023-06-10T04:58:36;9.13;;;6.43;;
47113;SDS011;32867;51.556;6.832;2023-06-10T05:03:37;9.35;;;5.85;;
47113;SDS011;32867;51.556;6.832;2023-06-10T05:08:37;7.13;;;5.72;;
47113;SDS011;32867;51.556;6.832;2023-06-10T05:13:41;7.97;;;5.57;;
47113;SDS011;32867;51.556;6.832;2023-06-10T05:18:42;7.05;;;5.50;;
47113;SDS011;32867;51.556;6.832;2023-06-10T05:23:44;10.20;;;6.15;;
47113;SDS011;32867;51.556;6.832;2023-06-10T05:28:44;8.10;;;5.60;;
47113;SDS011;32867;51.556;6.832;2023-06-10T05:33:45;8.52;;;5.10;;
47113;SDS011;32867;51.556;6.832;2023-06-10T05:38:46;9.38;;;4.90;;
47113;SDS011;32867;51.556;6.832;2023-06-10T05:43:46;8.52;;;5.40;;
47113;SDS011;32867;51.556;6.832;2023-06-10T05:48:47;8.43;;;4.55;;
47113;SDS011;32867;51.556;6.832;2023-06-10T05:53:48;6.97;;;4.82;;
47113;SDS011;32867;51.556;6.832;2023-06-10T05:58:49;5.88;;;4.25;;
47113;SDS011;32867;51.556;6.832;2023-06-10T06:03:49;8.13;;;4.65;;
47113;SDS011;32867;51.556;6.832;2023-06-10T06:08:50;8.95;;;4.72;;
47113;SDS011;32867;51.556;6.832;2023-06-10T06:13:51;8.23;;;4.85;;
47113;SDS011;32867;51.556;6.832;2023-06-10T06:18:51;6.75;;;4.25;;
47113;SDS011;32867;51.556;6.832;2023-06-10T06:23:52;7.35;;;4.55;;
47113;SDS011;32867;51.556;6.832;2023-06-10T06:28:53;7.15;;;4.22;;
47113;SDS011;32867;51.556;6.832;2023-06-10T06:33:53;7.03;;;4.10;;
47113;SDS011;32867;51.556;6.832;2023-06-10T06:38:54;9.88;;;4.90;;
47113;SDS011;32867;51.556;6.832;2023-06-10T06:43:57;7.75;;;4.47;;
47113;SDS011;32867;51.556;6.832;2023-06-10T06:49:04;7.75;;;4.25;;
47113;SDS011;32867;51.556;6.832;2023-06-10T06:54:05;7.55;;;4.40;;
47113;SDS011;32867;51.556;6.832;2023-06-10T06:59:06;6.30;;;4.47;;
47113;SDS011;32867;51.556;6.832;2023-06-10T07:04:07;6.90;;;3.95;;
47113;SDS011;32867;51.556;6.832;2023-06-10T07:09:07;6.63;;;4.07;;
47113;SDS011;32867;51.556;6.832;2023-06-10T07:14:11;7.18;;;4.30;;
47113;SDS011;32867;51.556;6.832;2023-06-10T07:19:12;7.38;;;4.60;;
47113;SDS011;32867;51.556;6.832;2023-06-10T07:24:13;10.80;;;4.65;;
47113;SDS011;32867;51.556;6.832;2023-06-10T07:29:14;6.60;;;3.78;;
47113;SDS011;32867;51.556;6.832;2023-06-10T07:34:15;6.55;;;4.15;;
47113;SDS011;32867;51.556;6.832;2023-06-10T07:39:15;7.03;;;4.03;;
47113;SDS011;32867;51.556;6.832;2023-06-10T07:44:16;6.18;;;3.92;;
47113;SDS011;32867;51.556;6.832;2023-06-10T07:49:18;7.43;;;3.83;;
47113;SDS011;32867;51.556;6.832;2023-06-10T07:54:19;8.93;;;4.50;;
47113;SDS011;32867;51.556;6.832;2023-06-10T07:59:21;7.13;;;3.95;;
47113;SDS011;32867;51.556;6.832;2023-06-10T08:04:23;7.10;;;3.88;;
47113;SDS011;32867;51.556;6.832;2023-06-10T08:09:24;5.20;;;3.90;;
47113;SDS011;32867;51.556;6.832;2023-06-10T08:14:25;5.45;;;3.80;;
47113;SDS011;32867;51.556;6.832;2023-06-10T08:19:25;4.22;;;3.25;;
47113;SDS011;32867;51.556;6.832;2023-06-10T08:24:26;7.40;;;4.32;;
47113;SDS011;32867;51.556;6.832;2023-06-10T08:29:27;7.85;;;4.65;;
47113;SDS011;32867;51.556;6.832;2023-06-10T08:34:27;7.53;;;4.10;;
47113;SDS011;32867;51.556;6.832;2023-06-10T08:39:28;6.80;;;3.70;;
47113;SDS011;32867;51.556;6.832;2023-06-10T08:44:32;6.70;;;3.67;;
47113;SDS011;32867;51.556;6.832;2023-06-10T08:49:39;6.30;;;3.30;;
47113;SDS011;32867;51.556;6.832;2023-06-10T08:55:01;7.35;;;3.60;;
47113;SDS011;32867;51.556;6.832;2023-06-10T09:00:04;6.90;;;3.50;;
47113;SDS011;32867;51.556;6.832;2023-06-10T09:05:07;7.95;;;3.90;;
47113;SDS011;32867;51.556;6.832;2023-06-10T09:10:09;6.90;;;3.72;;
47113;SDS011;32867;51.556;6.832;2023-06-10T09:15:11;6.32;;;4.07;;
47113;SDS011;32867;51.556;6.832;2023-06-10T09:20:14;7.28;;;3.70;;
47113;SDS011;32867;51.556;6.832;2023-06-10T09:25:15;5.10;;;3.47;;
47113;SDS011;32867;51.556;6.832;2023-06-10T09:30:31;8.70;;;3.90;;
47113;SDS011;32867;51.556;6.832;2023-06-10T09:35:34;6.82;;;3.90;;
47113;SDS011;32867;51.556;6.832;2023-06-10T09:40:35;5.70;;;4.22;;
47113;SDS011;32867;51.556;6.832;2023-06-10T09:45:52;6.75;;;4.03;;
47113;SDS011;32867;51.556;6.832;2023-06-10T09:50:57;6.03;;;4.27;;
47113;SDS011;32867;51.556;6.832;2023-06-10T09:55:57;6.75;;;4.50;;
47113;SDS011;32867;51.556;6.832;2023-06-10T10:00:58;6.72;;;4.05;;
47113;SDS011;32867;51.556;6.832;2023-06-10T10:05:59;5.68;;;3.80;;
47113;SDS011;32867;51.556;6.832;2023-06-10T10:11:00;6.30;;;4.00;;
47113;SDS011;32867;51.556;6.832;2023-06-10T10:16:14;6.20;;;3.95;;
47113;SDS011;32867;51.556;6.832;2023-06-10T10:21:17;5.80;;;3.75;;
47113;SDS011;32867;51.556;6.832;2023-06-10T10:26:23;6.38;;;3.75;;
47113;SDS011;32867;51.556;6.832;2023-06-10T10:31:26;5.85;;;3.85;;
47113;SDS011;32867;51.556;6.832;2023-06-10T10:36:29;6.68;;;4.25;;
47113;SDS011;32867;51.556;6.832;2023-06-10T10:41:31;7.07;;;3.97;;
47113;SDS011;32867;51.556;6.832;2023-06-10T10:46:42;5.10;;;3.65;;
47113;SDS011;32867;51.556;6.832;2023-06-10T10:51:57;5.10;;;3.60;;
47113;SDS011;32867;51.556;6.832;2023-06-10T10:57:11;6.88;;;4.10;;
47113;SDS011;32867;51.556;6.832;2023-06-10T11:07:33;6.18;;;3.83;;
47113;SDS011;32867;51.556;6.832;2023-06-10T11:12:53;6.00;;;4.05;;
47113;SDS011;32867;51.556;6.832;2023-06-10T11:18:10;7.13;;;3.80;;
47113;SDS011;32867;51.556;6.832;2023-06-10T11:28:32;4.85;;;3.70;;
47113;SDS011;32867;51.556;6.832;2023-06-10T11:33:33;6.43;;;3.78;;
47113;SDS011;32867;51.556;6.832;2023-06-10T11:38:38;6.13;;;3.40;;
47113;SDS011;32867;51.556;6.832;2023-06-10T11:43:45;6.78;;;3.67;;
47113;SDS011;32867;51.556;6.832;2023-06-10T11:48:54;5.45;;;4.28;;
47113;SDS011;32867;51.556;6.832;2023-06-10T11:53:57;8.60;;;3.90;;
47113;SDS011;32867;51.556;6.832;2023-06-10T11:59:02;5.15;;;3.88;;
47113;SDS011;32867;51.556;6.832;2023-06-10T12:04:08;4.72;;;3.92;;
47113;SDS011;32867;51.556;6.832;2023-06-10T12:19:59;7.22;;;4.13;;
47113;SDS011;32867;51.556;6.832;2023-06-10T12:25:02;6.43;;;4.30;;
47113;SDS011;32867;51.556;6.832;2023-06-10T12:30:06;5.65;;;3.90;;
47113;SDS011;32867;51.556;6.832;2023-06-10T12:35:10;5.13;;;3.72;;
47113;SDS011;32867;51.556;6.832;2023-06-10T12:40:14;5.47;;;3.38;;
47113;SDS011;32867;51.556;6.832;2023-06-10T12:45:16;5.70;;;3.80;;
47113;SDS011;32867;51.556;6.832;2023-06-10T12:50:37;5.32;;;3.95;;
47113;SDS011;32867;51.556;6.832;2023-06-10T12:55:41;5.65;;;4.10;;
47113;SDS011;32867;51.556;6.832;2023-06-10T13:00:42;4.97;;;3.70;;
47113;SDS011;32867;51.556;6.832;2023-06-10T13:05:43;5.50;;;3.90;;
47113;SDS011;32867;51.556;6.832;2023-06-10T13:10:43;6.07;;;3.33;;
47113;SDS011;32867;51.556;6.832;2023-06-10T13:15:44;7.20;;;3.85;;
47113;SDS011;32867;51.556;6.832;2023-06-10T13:20:48;5.55;;;3.90;;
47113;SDS011;32867;51.556;6.832;2023-06-10T13:25:49;5.85;;;3.75;;
47113;SDS011;32867;51.556;6.832;2023-06-10T13:30:50;4.03;;;3.42;;
47113;SDS011;32867;51.556;6.832;2023-06-10T13:35:50;5.90;;;3.53;;
47113;SDS011;32867;51.556;6.832;2023-06-10T13:40:51;6.13;;;3.97;;
47113;SDS011;32867;51.556;6.832;2023-06-10T13:45:52;5.35;;;3.85;;
47113;SDS011;32867;51.556;6.832;2023-06-10T13:50:55;5.50;;;3.53;;
47113;SDS011;32867;51.556;6.832;2023-06-10T13:55:56;5.53;;;3.60;;
47113;SDS011;32867;51.556;6.832;2023-06-10T14:00:57;4.65;;;3.45;;
47113;SDS011;32867;51.556;6.832;2023-06-10T14:05:58;7.60;;;3.92;;
47113;SDS011;32867;51.556;6.832;2023-06-10T14:10:59;6.60;;;3.88;;
47113;SDS011;32867;51.556;6.832;2023-06-10T14:16:00;5.82;;;4.13;;
47113;SDS011;32867;51.556;6.832;2023-06-10T14:21:02;6.22;;;3.80;;
47113;SDS011;32867;51.556;6.832;2023-06-10T14:26:03;4.82;;;3.63;;
47113;SDS011;32867;51.556;6.832;2023-06-10T14:31:05;5.38;;;4.10;;
47113;SDS011;32867;51.556;6.832;2023-06-10T14:36:07;6.18;;;3.80;;
47113;SDS011;32867;51.556;6.832;2023-06-10T14:41:08;5.82;;;3.75;;
47113;SDS011;32867;51.556;6.832;2023-06-10T14:46:09;5.82;;;3.63;;
47113;SDS011;32867;51.556;6.832;2023-06-10T14:51:10;5.22;;;4.10;;
47113;SDS011;32867;51.556;6.832;2023-06-10T14:56:10;4.93;;;3.72;;
47113;SDS011;32867;51.556;6.832;2023-06-10T15:01:12;5.88;;;3.67;;
47113;SDS011;32867;51.556;6.832;2023-06-10T15:06:13;5.47;;;4.15;;
47113;SDS011;32867;51.556;6.832;2023-06-10T15:11:19;4.47;;;3.85;;
47113;SDS011;32867;51.556;6.832;2023-06-10T15:16:22;5.43;;;3.90;;
47113;SDS011;32867;51.556;6.832;2023-06-10T15:21:23;5.00;;;3.70;;
47113;SDS011;32867;51.556;6.832;2023-06-10T15:26:23;4.93;;;3.50;;
47113;SDS011;32867;51.556;6.832;2023-06-10T15:31:24;5.82;;;3.45;;
47113;SDS011;32867;51.556;6.832;2023-06-10T15:36:25;5.40;;;3.55;;
47113;SDS011;32867;51.556;6.832;2023-06-10T15:41:27;7.85;;;4.05;;
47113;SDS011;32867;51.556;6.832;2023-06-10T15:46:28;4.78;;;3.67;;
47113;SDS011;32867;51.556;6.832;2023-06-10T15:51:29;6.32;;;4.47;;
47113;SDS011;32867;51.556;6.832;2023-06-10T15:56:30;6.18;;;3.35;;
47113;SDS011;32867;51.556;6.832;2023-06-10T16:01:32;6.00;;;3.75;;
47113;SDS011;32867;51.556;6.832;2023-06-10T16:06:33;4.90;;;3.70;;
47113;SDS011;32867;51.556;6.832;2023-06-10T16:11:35;5.30;;;3.53;;
47113;SDS011;32867;51.556;6.832;2023-06-10T16:16:35;5.13;;;3.63;;
47113;SDS011;32867;51.556;6.832;2023-06-10T16:21:36;5.55;;;3.78;;
47113;SDS011;32867;51.556;6.832;2023-06-10T16:26:39;5.95;;;3.60;;
47113;SDS011;32867;51.556;6.832;2023-06-10T16:31:40;4.97;;;3.85;;
47113;SDS011;32867;51.556;6.832;2023-06-10T16:36:41;5.60;;;3.70;;
47113;SDS011;32867;51.556;6.832;2023-06-10T16:41:42;6.90;;;3.85;;
47113;SDS011;32867;51.556;6.832;2023-06-10T16:46:43;5.30;;;3.50;;
47113;SDS011;32867;51.556;6.832;2023-06-10T16:51:43;5.07;;;3.88;;
47113;SDS011;32867;51.556;6.832;2023-06-10T16:56:44;5.68;;;3.55;;
47113;SDS011;32867;51.556;6.832;2023-06-10T17:01:45;4.30;;;3.25;;
47113;SDS011;32867;51.556;6.832;2023-06-10T17:06:46;5.90;;;3.65;;
47113;SDS011;32867;51.556;6.832;2023-06-10T17:11:51;4.50;;;3.87;;
47113;SDS011;32867;51.556;6.832;2023-06-10T17:16:54;5.60;;;3.50;;
47113;SDS011;32867;51.556;6.832;2023-06-10T17:21:55;6.20;;;3.45;;
47113;SDS011;32867;51.556;6.832;2023-06-10T17:26:57;5.32;;;3.88;;
47113;SDS011;32867;51.556;6.832;2023-06-10T17:31:58;4.35;;;3.70;;
47113;SDS011;32867;51.556;6.832;2023-06-10T17:37:00;5.28;;;3.65;;
47113;SDS011;32867;51.556;6.832;2023-06-10T17:42:01;5.07;;;3.65;;
47113;SDS011;32867;51.556;6.832;2023-06-10T17:47:03;4.30;;;3.13;;
47113;SDS011;32867;51.556;6.832;2023-06-10T17:52:05;7.13;;;3.88;;
47113;SDS011;32867;51.556;6.832;2023-06-10T17:57:11;6.38;;;3.78;;
47113;SDS011;32867;51.556;6.832;2023-06-10T18:02:12;5.57;;;3.58;;
47113;SDS011;32867;51.556;6.832;2023-06-10T18:07:13;5.60;;;3.38;;
47113;SDS011;32867;51.556;6.832;2023-06-10T18:12:17;6.13;;;4.00;;
47113;SDS011;32867;51.556;6.832;2023-06-10T18:17:18;6.03;;;3.30;;
47113;SDS011;32867;51.556;6.832;2023-06-10T18:22:21;6.43;;;3.50;;
47113;SDS011;32867;51.556;6.832;2023-06-10T18:27:22;5.43;;;4.00;;
47113;SDS011;32867;51.556;6.832;2023-06-10T18:32:24;5.78;;;3.60;;
47113;SDS011;32867;51.556;6.832;2023-06-10T18:37:25;4.40;;;3.63;;
47113;SDS011;32867;51.556;6.832;2023-06-10T18:42:26;6.00;;;3.72;;
47113;SDS011;32867;51.556;6.832;2023-06-10T18:47:27;6.80;;;4.40;;
47113;SDS011;32867;51.556;6.832;2023-06-10T18:52:28;5.03;;;3.30;;
47113;SDS011;32867;51.556;6.832;2023-06-10T18:57:29;4.93;;;3.97;;
47113;SDS011;32867;51.556;6.832;2023-06-10T19:02:29;6.13;;;4.20;;
47113;SDS011;32867;51.556;6.832;2023-06-10T19:07:32;5.50;;;4.13;;
47113;SDS011;32867;51.556;6.832;2023-06-10T19:12:35;5.78;;;3.90;;
47113;SDS011;32867;51.556;6.832;2023-06-10T19:17:36;7.85;;;4.28;;
47113;SDS011;32867;51.556;6.832;2023-06-10T19:22:36;5.95;;;3.50;;
47113;SDS011;32867;51.556;6.832;2023-06-10T19:27:37;7.10;;;4.25;;
47113;SDS011;32867;51.556;6.832;2023-06-10T19:32:38;6.55;;;4.20;;
47113;SDS011;32867;51.556;6.832;2023-06-10T19:37:38;6.63;;;3.80;;
47113;SDS011;32867;51.556;6.832;2023-06-10T19:42:39;5.40;;;4.00;;
47113;SDS011;32867;51.556;6.832;2023-06-10T19:47:40;6.30;;;3.85;;
47113;SDS011;32867;51.556;6.832;2023-06-10T19:52:41;8.52;;;3.85;;
47113;SDS011;32867;51.556;6.832;2023-06-10T19:57:42;6.50;;;4.22;;
47113;SDS011;32867;51.556;6.832;2023-06-10T20:02:43;5.70;;;4.20;;
47113;SDS011;32867;51.556;6.832;2023-06-10T20:07:44;6.15;;;3.75;;
47113;SDS011;32867;51.556;6.832;2023-06-10T20:12:45;4.38;;;3.40;;
47113;SDS011;32867;51.556;6.832;2023-06-10T20:17:46;5.88;;;4.07;;
47113;SDS011;32867;51.556;6.832;2023-06-10T20:22:47;6.32;;;4.15;;
47113;SDS011;32867;51.556;6.832;2023-06-10T20:27:48;6.72;;;4.10;;
47113;SDS011;32867;51.556;6.832;2023-06-10T20:32:50;4.70;;;3.45;;
47113;SDS011;32867;51.556;6.832;2023-06-10T20:37:52;5.47;;;3.55;;
47113;SDS011;32867;51.556;6.832;2023-06-10T20:42:53;6.80;;;4.10;;
47113;SDS011;32867;51.556;6.832;2023-06-10T20:47:54;6.00;;;3.90;;
47113;SDS011;32867;51.556;6.832;2023-06-10T20:52:54;4.80;;;3.50;;
47113;SDS011;32867;51.556;6.832;2023-06-10T20:57:56;6.80;;;4.15;;
47113;SDS011;32867;51.556;6.832;2023-06-10T21:02:58;7.05;;;4.05;;
47113;SDS011;32867;51.556;6.832;2023-06-10T21:07:59;6.22;;;3.75;;
47113;SDS011;32867;51.556;6.832;2023-06-10T21:13:00;6.13;;;4.40;;
47113;SDS011;32867;51.556;6.832;2023-06-10T21:18:00;8.50;;;4.90;;
47113;SDS011;32867;51.556;6.832;2023-06-10T21:23:02;4.93;;;3.95;;
47113;SDS011;32867;51.556;6.832;2023-06-10T21:28:03;6.07;;;4.13;;
47113;SDS011;32867;51.556;6.832;2023-06-10T21:33:03;5.90;;;4.10;;
47113;SDS011;32867;51.556;6.832;2023-06-10T21:38:04;4.47;;;3.55;;
47113;SDS011;32867;51.556;6.832;2023-06-10T21:43:07;4.82;;;3.53;;
47113;SDS011;32867;51.556;6.832;2023-06-10T21:48:07;4.78;;;3.88;;
47113;SDS011;32867;51.556;6.832;2023-06-10T21:53:08;4.47;;;3.35;;
47113;SDS011;32867;51.556;6.832;2023-06-10T21:58:09;8.20;;;4.13;;
47113;SDS011;32867;51.556;6.832;2023-06-10T22:03:09;5.50;;;3.47;;
47113;SDS011;32867;51.556;6.832;2023-06-10T22:08:10;5.38;;;4.20;;
47113;SDS011;32867;51.556;6.832;2023-06-10T22:13:12;7.05;;;4.65;;
47113;SDS011;32867;51.556;6.832;2023-06-10T22:18:14;5.13;;;4.13;;
47113;SDS011;32867;51.556;6.832;2023-06-10T22:23:20;4.65;;;3.70;;
47113;SDS011;32867;51.556;6.832;2023-06-10T22:28:21;5.50;;;3.67;;
47113;SDS011;32867;51.556;6.832;2023-06-10T22:33:22;5.97;;;4.00;;
47113;SDS011;32867;51.556;6.832;2023-06-10T22:38:22;5.40;;;3.85;;
47113;SDS011;32867;51.556;6.832;2023-06-10T22:43:23;5.10;;;3.85;;
47113;SDS011;32867;51.556;6.832;2023-06-10T22:48:24;5.13;;;3.65;;
47113;SDS011;32867;51.556;6.832;2023-06-10T22:53:25;6.25;;;4.18;;
47113;SDS011;32867;51.556;6.832;2023-06-10T22:58:26;5.95;;;4.25;;
47113;SDS011;32867;51.556;6.832;2023-06-10T23:03:28;5.20;;;3.88;;
47113;SDS011;32867;51.556;6.832;2023-06-10T23:08:29;5.55;;;4.28;;
47113;SDS011;32867;51.556;6.832;2023-06-10T23:13:29;9.35;;;5.18;;
47113;SDS011;32867;51.556;6.832;2023-06-10T23:18:30;6.20;;;4.68;;
47113;SDS011;32867;51.556;6.832;2023-06-10T23:23:33;5.95;;;4.45;;
47113;SDS011;32867;51.556;6.832;2023-06-10T23:28:34;5.65;;;4.35;;
47113;SDS011;32867;51.556;6.832;2023-06-10T23:33:35;7.15;;;4.80;;
47113;SDS011;32867;51.556;6.832;2023-06-10T23:38:36;7.07;;;4.60;;
47113;SDS011;32867;51.556;6.832;2023-06-10T23:43:37;5.78;;;4.38;;
47113;SDS011;32867;51.556;6.832;2023-06-10T23:48:38;5.78;;;4.80;;
47113;SDS011;32867;51.556;6.832;2023-06-10T23:53:38;6.80;;;4.85;;
47113;SDS011;32867;51.556;6.832;2023-06-10T23:58:39;8.40;;;5.28;;
